createdAt,value
2022-08-23T00:01:28.405Z,99.90
2022-08-23T00:04:21.482Z,99.90
2022-08-23T00:07:10.683Z,99.90
2022-08-23T00:09:56.529Z,99.90
2022-08-23T00:12:45.683Z,99.90
2022-08-23T00:15:31.497Z,99.90
2022-08-23T00:18:18.327Z,99.90
2022-08-23T00:21:04.382Z,99.90
2022-08-23T00:23:51.104Z,99.90
2022-08-23T00:26:49.663Z,99.90
2022-08-23T00:29:41.566Z,99.90
2022-08-23T00:32:31.876Z,99.90
2022-08-23T00:35:27.204Z,99.90
2022-08-23T00:38:33.355Z,99.90
2022-08-23T00:41:19.267Z,99.90
2022-08-23T00:44:24.950Z,99.90
2022-08-23T00:47:33.083Z,99.90
2022-08-23T00:50:42.532Z,99.90
2022-08-23T00:53:34.032Z,99.90
2022-08-23T00:56:22.753Z,99.90
2022-08-23T00:59:09.395Z,99.90
2022-08-23T01:01:56.161Z,99.90
2022-08-23T01:04:45.233Z,99.90
2022-08-23T01:07:39.016Z,99.90
2022-08-23T01:10:37.509Z,99.90
2022-08-23T01:13:30.174Z,99.90
2022-08-23T01:16:36.937Z,99.90
2022-08-23T01:19:32.962Z,99.90
2022-08-23T01:22:36.416Z,99.90
2022-08-23T01:25:23.849Z,99.90
2022-08-23T01:28:09.516Z,99.90
2022-08-23T01:30:55.791Z,99.90
2022-08-23T01:33:42.501Z,99.90
2022-08-23T01:36:29.993Z,99.90
2022-08-23T01:39:15.871Z,99.90
2022-08-23T01:42:02.207Z,99.90
2022-08-23T01:44:53.708Z,99.90
2022-08-23T01:47:41.065Z,99.90
2022-08-23T01:50:29.084Z,99.90
2022-08-23T01:53:15.802Z,99.90
2022-08-23T01:56:07.398Z,99.90
2022-08-23T01:58:55.389Z,99.90
2022-08-23T02:01:44.290Z,99.90
2022-08-23T02:04:30.509Z,99.90
2022-08-23T02:07:16.472Z,99.90
2022-08-23T02:10:02.646Z,99.90
2022-08-23T02:12:49.689Z,99.90
2022-08-23T02:15:36.300Z,99.90
2022-08-23T02:18:22.628Z,99.90
2022-08-23T02:21:10.340Z,99.90
2022-08-23T02:23:58.060Z,99.90
2022-08-23T02:26:49.643Z,99.90
2022-08-23T02:29:45.187Z,99.90
2022-08-23T02:35:18.353Z,99.90
2022-08-23T02:38:08.928Z,99.90
2022-08-23T02:41:01.063Z,99.90
2022-08-23T02:43:52.648Z,99.90
2022-08-23T02:46:40.654Z,99.90
2022-08-23T02:49:26.590Z,99.90
2022-08-23T02:52:12.632Z,99.90
2022-08-23T02:54:58.518Z,99.90
2022-08-23T02:57:44.623Z,99.90
2022-08-23T03:00:32.566Z,99.90
2022-08-23T03:03:19.060Z,99.90
2022-08-23T03:06:25.536Z,99.90
2022-08-23T03:09:12.480Z,99.90
2022-08-23T03:11:58.132Z,99.90
2022-08-23T03:14:43.944Z,99.90
2022-08-23T03:17:29.853Z,99.90
2022-08-23T03:20:16.282Z,99.90
2022-08-23T03:23:02.294Z,99.90
2022-08-23T03:25:48.586Z,99.90
2022-08-23T03:28:44.656Z,99.90
2022-08-23T03:31:31.834Z,99.90
2022-08-23T03:34:25.738Z,99.90
2022-08-23T03:37:12.411Z,99.90
2022-08-23T03:39:58.399Z,99.90
2022-08-23T03:42:44.051Z,99.90
2022-08-23T03:45:31.114Z,99.90
2022-08-23T03:48:17.525Z,99.90
2022-08-23T03:51:04.750Z,99.90
2022-08-23T03:53:50.739Z,99.90
2022-08-23T03:56:41.748Z,99.90
2022-08-23T03:59:29.181Z,99.90
2022-08-23T04:02:16.702Z,99.90
2022-08-23T04:05:02.770Z,99.90
2022-08-23T04:08:33.693Z,99.90
2022-08-23T04:11:22.489Z,99.90
2022-08-23T04:14:15.907Z,99.90
2022-08-23T04:17:01.539Z,99.90
2022-08-23T04:19:48.308Z,99.90
2022-08-23T04:22:35.018Z,99.90
2022-08-23T04:25:34.295Z,99.90
2022-08-23T04:28:23.809Z,99.90
2022-08-23T04:31:09.975Z,99.90
2022-08-23T04:33:59.060Z,99.90
2022-08-23T04:36:51.800Z,99.90
2022-08-23T04:42:52.812Z,99.90
2022-08-23T04:45:39.761Z,99.90
2022-08-23T04:48:29.545Z,99.90
2022-08-23T04:51:15.973Z,99.90
2022-08-23T04:54:02.685Z,99.90
2022-08-23T04:56:54.964Z,99.90
2022-08-23T04:59:41.653Z,99.90
2022-08-23T05:02:27.914Z,99.90
2022-08-23T05:05:15.448Z,99.90
2022-08-23T05:08:04.034Z,99.90
2022-08-23T05:10:49.910Z,99.90
2022-08-23T05:13:36.312Z,99.90
2022-08-23T05:16:23.415Z,99.90
2022-08-23T05:19:18.358Z,99.90
2022-08-23T05:22:06.251Z,99.90
2022-08-23T05:25:16.533Z,99.90
2022-08-23T05:28:03.404Z,99.90
2022-08-23T05:31:04.638Z,99.90
2022-08-23T05:33:58.718Z,99.90
2022-08-23T05:36:57.341Z,99.90
2022-08-23T05:39:48.777Z,99.90
2022-08-23T05:42:34.482Z,99.90
2022-08-23T05:45:21.910Z,99.90
2022-08-23T05:48:08.370Z,99.90
2022-08-23T05:51:24.161Z,99.90
2022-08-23T05:56:56.641Z,99.90
2022-08-23T05:59:42.328Z,99.90
2022-08-23T06:02:27.901Z,99.90
2022-08-23T06:05:13.879Z,99.90
2022-08-23T06:08:00.783Z,99.90
2022-08-23T06:10:46.698Z,99.90
2022-08-23T06:13:47.472Z,99.90
2022-08-23T06:16:36.756Z,99.90
2022-08-23T06:22:08.813Z,99.90
2022-08-23T06:24:59.336Z,99.90
2022-08-23T06:28:12.320Z,99.90
2022-08-23T06:31:01.207Z,99.90
2022-08-23T06:33:53.436Z,99.90
2022-08-23T06:36:56.970Z,99.90
2022-08-23T06:40:09.264Z,99.90
2022-08-23T06:43:18.704Z,99.90
2022-08-23T06:46:28.255Z,99.90
2022-08-23T06:49:16.416Z,99.90
2022-08-23T06:52:06.632Z,99.90
2022-08-23T06:55:21.421Z,99.90
2022-08-23T06:58:23.429Z,99.90
2022-08-23T07:01:50.199Z,99.90
2022-08-23T07:04:43.527Z,99.90
2022-08-23T07:10:34.377Z,99.90
2022-08-23T07:13:20.188Z,99.90
2022-08-23T07:16:07.033Z,99.90
2022-08-23T07:18:55.460Z,99.90
2022-08-23T07:21:41.709Z,99.90
2022-08-23T07:24:32.882Z,99.90
2022-08-23T07:27:20.211Z,99.90
2022-08-23T07:30:26.219Z,99.90
2022-08-23T07:33:12.623Z,99.90
2022-08-23T07:36:20.756Z,99.90
2022-08-23T07:39:08.290Z,99.90
2022-08-23T07:44:41.370Z,99.90
2022-08-23T07:47:29.730Z,99.90
2022-08-23T07:50:17.193Z,99.90
2022-08-23T07:53:04.071Z,99.90
2022-08-23T07:55:51.171Z,99.90
2022-08-23T07:59:01.608Z,99.90
2022-08-23T08:02:19.701Z,99.90
2022-08-23T08:05:05.904Z,99.90
2022-08-23T08:07:52.106Z,99.90
2022-08-23T08:10:42.137Z,99.90
2022-08-23T08:13:27.926Z,99.90
2022-08-23T08:16:24.168Z,99.90
2022-08-23T08:19:15.082Z,99.90
2022-08-23T08:22:20.456Z,99.90
2022-08-23T08:25:26.434Z,99.90
2022-08-23T08:28:15.971Z,99.90
2022-08-23T08:31:02.976Z,99.90
2022-08-23T08:33:50.032Z,99.90
2022-08-23T08:36:42.521Z,99.90
2022-08-23T08:39:34.778Z,99.90
2022-08-23T08:42:38.483Z,99.90
2022-08-23T08:45:32.573Z,99.90
2022-08-23T08:48:23.845Z,99.90
2022-08-23T08:51:26.368Z,99.90
2022-08-23T08:54:17.412Z,99.90
2022-08-23T08:57:07.741Z,99.90
2022-08-23T09:00:14.887Z,99.90
2022-08-23T09:03:09.603Z,99.90
2022-08-23T09:06:01.213Z,99.90
2022-08-23T09:09:02.206Z,99.90
2022-08-23T09:12:04.506Z,99.90
2022-08-23T09:15:21.026Z,99.90
2022-08-23T09:18:15.682Z,99.90
2022-08-23T09:21:06.800Z,99.90
2022-08-23T09:24:00.748Z,99.90
2022-08-23T09:27:10.070Z,99.90
2022-08-23T09:29:58.671Z,99.90
2022-08-23T09:32:49.268Z,99.90
2022-08-23T09:35:36.659Z,99.90
2022-08-23T09:38:26.929Z,99.90
2022-08-23T09:41:22.345Z,99.90
2022-08-23T09:44:29.561Z,99.90
2022-08-23T09:47:17.674Z,99.90
2022-08-23T09:50:26.365Z,99.90
2022-08-23T09:53:14.804Z,99.90
2022-08-23T09:56:24.609Z,99.90
2022-08-23T09:59:26.815Z,99.90
2022-08-23T10:02:22.195Z,99.90
2022-08-23T10:05:27.828Z,99.90
2022-08-23T10:08:29.735Z,99.90
2022-08-23T10:11:29.804Z,99.90
2022-08-23T10:14:18.463Z,99.90
2022-08-23T10:17:14.608Z,99.90
2022-08-23T10:20:29.105Z,99.90
2022-08-23T10:23:43.797Z,99.90
2022-08-23T10:26:32.994Z,99.90
2022-08-23T10:29:38.262Z,99.90
2022-08-23T10:32:50.982Z,99.90
2022-08-23T10:35:52.649Z,99.90
2022-08-23T10:39:03.674Z,99.90
2022-08-23T10:42:22.134Z,99.90
2022-08-23T10:45:16.532Z,99.90
2022-08-23T10:48:31.985Z,99.90
2022-08-23T10:51:31.856Z,99.90
2022-08-23T10:54:59.482Z,99.90
2022-08-23T10:57:49.001Z,99.90
2022-08-23T11:00:37.158Z,99.90
2022-08-23T11:03:41.903Z,99.90
2022-08-23T11:06:37.086Z,99.90
2022-08-23T11:09:26.593Z,99.90
2022-08-23T11:12:30.977Z,99.90
2022-08-23T11:15:24.066Z,99.90
2022-08-23T11:18:39.260Z,99.90
2022-08-23T11:21:25.637Z,99.90
2022-08-23T11:24:16.453Z,99.90
2022-08-23T11:27:07.103Z,99.90
2022-08-23T11:30:37.936Z,99.90
2022-08-23T11:33:36.625Z,99.90
2022-08-23T11:36:25.392Z,99.90
2022-08-23T11:39:21.626Z,99.90
2022-08-23T11:42:19.348Z,99.90
2022-08-23T11:45:22.888Z,99.90
2022-08-23T11:48:36.067Z,99.90
2022-08-23T11:51:24.725Z,99.90
2022-08-23T11:54:16.689Z,99.90
2022-08-23T11:57:24.655Z,99.60
2022-08-23T12:00:28.627Z,99.90
2022-08-23T12:03:36.614Z,99.90
2022-08-23T12:06:22.505Z,99.90
2022-08-23T12:09:16.093Z,99.70
2022-08-23T12:12:02.187Z,99.90
2022-08-23T12:14:52.498Z,99.90
2022-08-23T12:17:41.003Z,99.90
2022-08-23T12:20:31.177Z,99.80
2022-08-23T12:23:20.401Z,99.30
2022-08-23T12:26:21.036Z,98.90
2022-08-23T12:29:17.638Z,99.80
2022-08-23T12:32:19.720Z,99.40
2022-08-23T12:35:23.713Z,98.60
2022-08-23T12:38:33.752Z,99.10
2022-08-23T12:41:30.601Z,99.90
2022-08-23T12:44:22.656Z,99.70
2022-08-23T12:47:27.080Z,99.90
2022-08-23T12:50:15.755Z,98.00
2022-08-23T12:53:05.442Z,97.20
2022-08-23T12:55:58.774Z,98.20
2022-08-23T12:58:52.321Z,97.80
2022-08-23T13:01:42.013Z,99.00
2022-08-23T13:04:28.753Z,98.00
2022-08-23T13:07:21.640Z,98.50
2022-08-23T13:10:10.417Z,98.40
2022-08-23T13:12:56.730Z,98.10
2022-08-23T13:16:26.882Z,98.10
2022-08-23T13:19:18.265Z,97.40
2022-08-23T13:22:22.180Z,98.00
2022-08-23T13:25:32.475Z,98.60
2022-08-23T13:28:28.417Z,99.30
2022-08-23T13:31:15.320Z,99.30
2022-08-23T13:34:01.158Z,98.60
2022-08-23T13:36:52.197Z,98.80
2022-08-23T13:39:38.116Z,97.40
2022-08-23T13:42:29.628Z,98.70
2022-08-23T13:45:21.863Z,97.90
2022-08-23T13:48:30.392Z,97.00
2022-08-23T13:51:32.912Z,97.00
2022-08-23T13:54:18.634Z,99.30
2022-08-23T13:57:11.767Z,97.80
2022-08-23T13:59:59.111Z,97.40
2022-08-23T14:02:48.846Z,97.90
2022-08-23T14:05:35.290Z,99.30
2022-08-23T14:08:21.071Z,99.80
2022-08-23T14:11:07.094Z,99.00
2022-08-23T14:13:52.812Z,98.30
2022-08-23T14:16:40.005Z,97.30
2022-08-23T14:22:32.240Z,97.00
2022-08-23T14:25:18.447Z,98.40
2022-08-23T14:28:04.115Z,96.60
2022-08-23T14:31:03.873Z,95.20
2022-08-23T14:33:54.726Z,93.40
2022-08-23T14:39:51.273Z,92.00
2022-08-23T14:42:37.105Z,92.30
2022-08-23T14:45:23.557Z,93.20
2022-08-23T14:48:09.522Z,94.00
2022-08-23T14:50:55.916Z,94.70
2022-08-23T14:53:41.865Z,93.70
2022-08-23T14:56:28.078Z,93.90
2022-08-23T14:59:14.388Z,94.10
2022-08-23T15:02:00.908Z,94.20
2022-08-23T15:04:46.593Z,94.00
2022-08-23T15:07:32.515Z,94.10
2022-08-23T15:13:30.019Z,94.20
2022-08-23T15:16:19.956Z,94.90
2022-08-23T15:21:52.386Z,94.70
2022-08-23T15:24:39.352Z,95.20
2022-08-23T15:27:25.979Z,93.70
2022-08-23T15:30:16.970Z,93.80
2022-08-23T15:33:03.304Z,95.70
2022-08-23T15:35:54.443Z,93.60
2022-08-23T15:38:42.227Z,93.10
2022-08-23T15:41:28.294Z,94.30
2022-08-23T15:44:15.193Z,95.10
2022-08-23T15:47:18.132Z,92.90
2022-08-23T15:50:04.709Z,94.20
2022-08-23T15:52:51.326Z,94.60
2022-08-23T15:55:38.850Z,94.70
2022-08-23T15:58:26.981Z,94.70
2022-08-23T16:01:13.514Z,94.40
2022-08-23T16:04:02.100Z,93.20
2022-08-23T16:06:48.250Z,93.00
2022-08-23T16:09:34.897Z,92.40
2022-08-23T16:12:20.653Z,92.10
2022-08-23T16:15:07.207Z,92.80
2022-08-23T16:17:52.964Z,92.50
2022-08-23T16:20:39.581Z,92.20
2022-08-23T16:23:26.482Z,92.50
2022-08-23T16:26:22.681Z,92.40
2022-08-23T16:29:20.703Z,92.70
2022-08-23T16:32:07.665Z,91.90
2022-08-23T16:34:54.048Z,94.20
2022-08-23T16:37:40.305Z,93.50
2022-08-23T16:40:26.214Z,94.70
2022-08-23T16:43:12.024Z,95.50
2022-08-23T16:45:58.183Z,96.40
2022-08-23T16:48:45.324Z,97.10
2022-08-23T16:51:31.113Z,97.80
2022-08-23T16:54:19.412Z,96.80
2022-08-23T16:57:05.556Z,95.00
2022-08-23T16:59:51.642Z,95.20
2022-08-23T17:02:38.073Z,95.40
2022-08-23T17:05:24.191Z,95.20
2022-08-23T17:08:09.836Z,95.20
2022-08-23T17:10:57.991Z,95.40
2022-08-23T17:13:47.081Z,96.10
2022-08-23T17:16:32.973Z,95.50
2022-08-23T17:19:18.519Z,95.70
2022-08-23T17:22:04.213Z,97.50
2022-08-23T17:24:53.411Z,97.50
2022-08-23T17:27:45.471Z,98.10
2022-08-23T17:30:32.169Z,99.30
2022-08-23T17:36:05.141Z,96.70
2022-08-23T17:38:51.241Z,99.00
2022-08-23T17:41:38.054Z,98.50
2022-08-23T17:44:25.199Z,97.40
2022-08-23T17:47:16.545Z,97.40
2022-08-23T17:52:50.845Z,99.60
2022-08-23T17:55:37.102Z,98.50
2022-08-23T17:58:22.927Z,98.80
2022-08-23T18:01:11.979Z,98.40
2022-08-23T18:06:44.522Z,99.90
2022-08-23T18:09:30.760Z,99.90
2022-08-23T18:12:16.881Z,98.50
2022-08-23T18:17:49.978Z,99.90
2022-08-23T18:20:38.225Z,99.90
2022-08-23T18:23:24.072Z,99.90
2022-08-23T18:26:32.513Z,98.60
2022-08-23T18:29:19.244Z,99.90
2022-08-23T18:32:07.472Z,99.90
2022-08-23T18:34:53.269Z,99.90
2022-08-23T18:37:39.350Z,99.90
2022-08-23T18:40:27.280Z,99.90
2022-08-23T18:43:16.939Z,99.90
2022-08-23T18:46:02.682Z,99.90
2022-08-23T18:48:53.823Z,99.90
2022-08-23T18:51:41.526Z,99.90
2022-08-23T18:54:31.822Z,99.90
2022-08-23T18:57:19.747Z,99.90
2022-08-23T19:00:07.360Z,99.90
2022-08-23T19:02:53.201Z,99.90
2022-08-23T19:05:42.271Z,99.90
2022-08-23T19:08:28.778Z,99.90
2022-08-23T19:11:15.771Z,99.90
2022-08-23T19:14:02.167Z,99.90
2022-08-23T19:19:35.822Z,99.90
2022-08-23T19:22:21.648Z,99.90
2022-08-23T19:25:08.422Z,99.90
2022-08-23T19:27:54.139Z,99.90
2022-08-23T19:30:40.603Z,99.90
2022-08-23T19:39:20.552Z,99.90
2022-08-23T19:44:57.634Z,99.90
2022-08-23T19:47:43.444Z,99.90
2022-08-23T19:53:15.690Z,99.90
2022-08-23T19:56:02.345Z,99.90
2022-08-23T20:01:36.655Z,99.90
2022-08-23T20:04:24.510Z,99.90
2022-08-23T20:07:10.552Z,99.90
2022-08-23T20:09:56.516Z,99.90
2022-08-23T20:12:42.833Z,99.90
2022-08-23T20:15:29.505Z,99.90
2022-08-23T20:18:15.538Z,99.90
2022-08-23T20:21:01.991Z,99.90
2022-08-23T20:24:03.761Z,99.90
2022-08-23T20:26:50.989Z,99.90
2022-08-23T20:29:36.763Z,99.90
2022-08-23T20:32:22.560Z,99.90
2022-08-23T20:35:11.248Z,99.90
2022-08-23T20:37:57.546Z,99.90
2022-08-23T20:40:43.265Z,99.90
2022-08-23T20:43:29.049Z,99.90
2022-08-23T20:46:14.999Z,99.90
2022-08-23T20:49:00.946Z,99.90
2022-08-23T20:51:47.173Z,99.90
2022-08-23T20:54:33.518Z,99.90
2022-08-23T20:57:19.776Z,99.90
2022-08-23T21:00:07.813Z,99.90
2022-08-23T21:02:53.514Z,99.90
2022-08-23T21:05:39.677Z,99.90
2022-08-23T21:08:25.781Z,99.90
2022-08-23T21:11:11.754Z,99.90
2022-08-23T21:13:58.617Z,99.90
2022-08-23T21:16:46.160Z,99.90
2022-08-23T21:19:33.207Z,99.90
2022-08-23T21:22:18.977Z,99.90
2022-08-23T21:25:06.090Z,99.90
2022-08-23T21:27:51.889Z,99.90
2022-08-23T21:30:38.213Z,99.90
2022-08-23T21:33:25.648Z,99.90
2022-08-23T21:36:12.796Z,99.90
2022-08-23T21:38:58.341Z,99.90
2022-08-23T21:41:46.035Z,99.90
2022-08-23T21:44:31.686Z,99.90
2022-08-23T21:47:19.669Z,99.90
2022-08-23T21:50:07.118Z,99.90
2022-08-23T21:53:04.596Z,99.90
2022-08-23T21:55:50.545Z,99.90
2022-08-23T21:58:36.544Z,99.90
2022-08-23T22:01:22.503Z,99.90
2022-08-23T22:04:10.334Z,99.90
2022-08-23T22:06:56.188Z,99.90
2022-08-23T22:09:46.020Z,99.90
2022-08-23T22:12:33.537Z,99.90
2022-08-23T22:15:19.157Z,99.90
2022-08-23T22:18:05.992Z,99.90
2022-08-23T22:20:51.747Z,99.90
2022-08-23T22:23:41.883Z,99.90
2022-08-23T22:26:28.408Z,99.90
2022-08-23T22:29:14.451Z,99.90
2022-08-23T22:32:00.938Z,99.90
2022-08-23T22:34:47.252Z,99.90
2022-08-23T22:37:33.146Z,99.90
2022-08-23T22:40:19.441Z,99.90
2022-08-23T22:43:05.233Z,99.90
2022-08-23T22:45:53.630Z,99.90
2022-08-23T22:48:40.868Z,99.90
2022-08-23T22:51:30.201Z,99.90
2022-08-23T22:54:16.307Z,99.90
2022-08-23T22:57:01.942Z,99.90
2022-08-23T22:59:47.656Z,99.90
2022-08-23T23:02:36.301Z,99.90
2022-08-23T23:05:22.599Z,99.90
2022-08-23T23:08:26.753Z,99.90
2022-08-23T23:11:14.110Z,99.90
2022-08-23T23:14:00.089Z,99.90
2022-08-23T23:16:49.126Z,99.90
2022-08-23T23:19:53.693Z,99.90
2022-08-23T23:22:39.300Z,99.90
2022-08-23T23:25:25.286Z,99.90
2022-08-23T23:28:11.190Z,99.90
2022-08-23T23:30:59.286Z,99.90
2022-08-23T23:33:45.397Z,99.90
2022-08-23T23:36:31.388Z,99.90
2022-08-23T23:39:17.274Z,99.90
2022-08-23T23:42:03.182Z,99.90
2022-08-23T23:44:49.232Z,99.90
2022-08-23T23:47:35.246Z,99.90
2022-08-23T23:50:21.802Z,99.90
2022-08-23T23:53:07.321Z,99.90
2022-08-23T23:56:01.149Z,99.90
2022-08-23T23:58:47.609Z,99.90
